Time;durP1;ratioP1;P1;durP2;ratioP2;P2;SDS_P1;SDS_P2;PMS_P1;PMS_P2;Temp;Humidity;BMP_temperature;BMP_pressure;BME280_temperature;BME280_humidity;BME280_pressure;Samples;Min_cycle;Max_cycle;Signal;HPM_P1;HPM_P2
2022/04/29 00:02:11;;;;;;;10.35;7.30;;;9.30;21.90;;;;;;5002390;28;34381;-76
2022/04/29 00:04:38;;;;;;;7.72;6.38;;;9.30;21.90;;;;;;5005690;28;34168;-76
2022/04/29 00:07:06;;;;;;;9.63;7.20;;;9.30;22.00;;;;;;4988122;28;33731;-76
2022/04/29 00:09:33;;;;;;;9.75;6.90;;;9.30;22.30;;;;;;4987587;28;34071;-77
2022/04/29 00:12:02;;;;;;;8.55;6.38;;;9.30;22.20;;;;;;4968454;28;34502;-76
2022/04/29 00:14:29;;;;;;;8.38;6.57;;;9.20;22.30;;;;;;4968632;28;34629;-77
2022/04/29 00:16:55;;;;;;;11.35;6.95;;;9.20;22.30;;;;;;4951579;28;34201;-77
2022/04/29 00:19:21;;;;;;;10.43;7.10;;;9.20;22.30;;;;;;4951732;28;34137;-76
2022/04/29 00:21:47;;;;;;;10.93;6.80;;;9.10;22.40;;;;;;4967807;28;35023;-77
2022/04/29 00:24:13;;;;;;;12.27;6.90;;;9.10;22.50;;;;;;4952136;28;35668;-76
2022/04/29 00:26:39;;;;;;;19.13;6.70;;;9.10;22.50;;;;;;4967991;28;34377;-76
2022/04/29 00:29:07;;;;;;;9.93;6.60;;;9.10;22.60;;;;;;4967897;28;34283;-76
2022/04/29 00:31:33;;;;;;;9.55;6.30;;;9.10;22.70;;;;;;4960334;28;34648;-76
2022/04/29 00:34:00;;;;;;;9.82;6.97;;;9.10;22.80;;;;;;4969197;28;36589;-77
2022/04/29 00:36:26;;;;;;;9.35;6.53;;;9.10;22.90;;;;;;5004561;28;33975;-77
2022/04/29 00:38:52;;;;;;;9.00;6.63;;;9.00;22.70;;;;;;4987252;28;34207;-76
2022/04/29 00:41:19;;;;;;;8.05;6.18;;;9.00;22.90;;;;;;4987528;28;34628;-76
2022/04/29 00:43:46;;;;;;;7.97;5.78;;;8.90;23.00;;;;;;4975594;28;35511;-76
2022/04/29 00:46:12;;;;;;;9.45;6.47;;;8.90;23.00;;;;;;4984683;28;34134;-76
2022/04/29 00:48:38;;;;;;;9.95;6.90;;;8.90;23.20;;;;;;4985356;28;34070;-76
2022/04/29 00:51:05;;;;;;;9.52;6.10;;;8.90;23.20;;;;;;4967470;28;34091;-76
2022/04/29 00:53:31;;;;;;;10.02;6.20;;;8.80;23.20;;;;;;4975316;28;35894;-76
2022/04/29 00:55:58;;;;;;;11.15;6.20;;;8.80;23.30;;;;;;5004394;28;34416;-76
2022/04/29 00:58:42;;;;;;;8.55;6.22;;;8.70;23.30;;;;;;4993970;28;34097;-76
2022/04/29 01:01:09;;;;;;;9.15;6.35;;;8.70;26.70;;;;;;4981670;28;34076;-77
2022/04/29 01:03:37;;;;;;;8.73;6.20;;;8.60;23.50;;;;;;4983344;28;36466;-77
2022/04/29 01:06:03;;;;;;;10.65;6.13;;;8.60;24.10;;;;;;4967737;28;34146;-76
2022/04/29 01:08:29;;;;;;;8.90;6.38;;;8.50;23.70;;;;;;4970760;28;34421;-76
2022/04/29 01:10:56;;;;;;;10.25;6.20;;;8.50;23.60;;;;;;4983710;28;34409;-76
2022/04/29 01:13:23;;;;;;;9.65;6.20;;;8.50;23.90;;;;;;4985426;28;35838;-76
2022/04/29 01:15:51;;;;;;;9.32;6.55;;;8.50;23.80;;;;;;4954556;28;34180;-76
2022/04/29 01:18:18;;;;;;;10.18;6.53;;;8.40;23.90;;;;;;4970186;28;34286;-76
2022/04/29 01:20:44;;;;;;;11.00;6.38;;;8.40;23.90;;;;;;5004731;28;34177;-76
2022/04/29 01:23:11;;;;;;;7.90;5.97;;;8.40;23.90;;;;;;4986650;28;36346;-76
2022/04/29 01:25:38;;;;;;;7.35;5.10;;;8.30;24.00;;;;;;4966608;28;34331;-77
2022/04/29 01:28:05;;;;;;;9.45;6.70;;;8.30;24.00;;;;;;4986768;28;34284;-76
2022/04/29 01:30:31;;;;;;;7.93;5.75;;;8.30;24.10;;;;;;4986740;28;34697;-76
2022/04/29 01:32:59;;;;;;;9.13;6.30;;;8.20;24.10;;;;;;4986206;28;35532;-76
2022/04/29 01:35:25;;;;;;;8.45;6.22;;;8.20;24.10;;;;;;4986353;28;34084;-76
2022/04/29 01:37:51;;;;;;;8.10;6.05;;;8.10;24.30;;;;;;5003951;28;34079;-76
2022/04/29 01:40:17;;;;;;;8.57;6.32;;;8.10;24.20;;;;;;4986520;28;34234;-76
2022/04/29 01:42:44;;;;;;;7.80;5.93;;;8.10;24.30;;;;;;4970344;28;36392;-77
2022/04/29 01:45:11;;;;;;;11.60;6.40;;;8.10;24.30;;;;;;4986502;28;33990;-77
2022/04/29 01:47:37;;;;;;;7.88;5.90;;;8.00;24.40;;;;;;4970590;28;34268;-77
2022/04/29 01:50:04;;;;;;;10.32;5.40;;;7.90;24.50;;;;;;4986632;28;34174;-77
2022/04/29 01:52:30;;;;;;;8.13;5.20;;;7.90;24.70;;;;;;5003415;28;34641;-76
2022/04/29 01:54:56;;;;;;;9.52;5.68;;;7.90;24.70;;;;;;5000475;28;34267;-76
2022/04/29 01:57:22;;;;;;;9.45;5.88;;;7.90;24.70;;;;;;4966309;28;34010;-76
2022/04/29 01:59:48;;;;;;;8.75;6.13;;;7.80;24.80;;;;;;4980446;28;34415;-77
2022/04/29 02:02:15;;;;;;;11.68;6.78;;;7.80;24.70;;;;;;4969626;28;36644;-76
2022/04/29 02:04:41;;;;;;;9.77;6.18;;;7.80;24.90;;;;;;4986380;28;34439;-77
2022/04/29 02:07:07;;;;;;;8.30;5.53;;;7.70;24.90;;;;;;4985985;28;34217;-76
2022/04/29 02:09:33;;;;;;;10.15;6.38;;;7.70;25.20;;;;;;4986403;28;34455;-76
2022/04/29 02:12:06;;;;;;;7.78;5.90;;;7.70;25.10;;;;;;5002766;28;34181;-76
2022/04/29 02:14:35;;;;;;;11.48;6.20;;;7.60;25.30;;;;;;4989256;28;34281;-77
2022/04/29 02:17:02;;;;;;;7.75;5.63;;;7.60;25.50;;;;;;4989290;28;34125;-76
2022/04/29 02:19:28;;;;;;;8.07;5.97;;;7.60;25.70;;;;;;5007347;28;34460;-77
2022/04/29 02:21:55;;;;;;;9.73;6.68;;;7.50;25.80;;;;;;5006800;28;34327;-77
2022/04/29 02:24:21;;;;;;;8.27;5.70;;;7.50;25.80;;;;;;4989255;28;34599;-76
2022/04/29 02:26:47;;;;;;;6.82;5.43;;;7.50;25.70;;;;;;4989601;28;34323;-76
2022/04/29 02:29:13;;;;;;;7.30;5.25;;;7.40;25.80;;;;;;4989309;28;34169;-76
2022/04/29 02:31:39;;;;;;;8.27;5.65;;;7.40;26.10;;;;;;4988697;28;35571;-76
2022/04/29 02:34:05;;;;;;;11.32;5.78;;;7.40;26.30;;;;;;4989602;28;34138;-76
2022/04/29 02:36:31;;;;;;;7.72;5.72;;;7.40;26.40;;;;;;5006583;28;34318;-76
2022/04/29 02:38:58;;;;;;;7.25;5.50;;;7.40;26.40;;;;;;4989163;28;34094;-76
2022/04/29 02:41:24;;;;;;;9.48;5.30;;;7.30;26.40;;;;;;4972761;28;35938;-77
2022/04/29 02:43:50;;;;;;;8.07;5.47;;;7.30;26.50;;;;;;4989193;28;34004;-76
2022/04/29 02:46:16;;;;;;;7.88;5.75;;;7.40;26.50;;;;;;5004849;28;34309;-76
2022/04/29 02:48:43;;;;;;;9.60;5.88;;;7.40;26.60;;;;;;4989058;28;34615;-76
2022/04/29 02:51:10;;;;;;;8.07;5.50;;;7.30;26.70;;;;;;4988839;28;35641;-76
2022/04/29 02:53:36;;;;;;;11.27;6.13;;;7.30;26.60;;;;;;4989180;28;34178;-77
2022/04/29 02:56:02;;;;;;;9.60;6.15;;;7.30;26.70;;;;;;5006365;28;34003;-77
2022/04/29 02:58:28;;;;;;;8.90;6.00;;;7.30;26.60;;;;;;4989144;28;34099;-77
2022/04/29 03:00:56;;;;;;;7.88;5.60;;;7.30;26.80;;;;;;4972615;28;35893;-76
2022/04/29 03:03:22;;;;;;;6.95;5.07;;;7.30;26.80;;;;;;5004881;28;34131;-76
2022/04/29 03:05:48;;;;;;;7.10;5.25;;;7.40;27.00;;;;;;5005720;28;34139;-76
2022/04/29 03:08:14;;;;;;;10.35;6.13;;;7.30;27.00;;;;;;5005692;28;34137;-76
2022/04/29 03:10:40;;;;;;;9.07;6.50;;;7.30;27.10;;;;;;5006094;28;34857;-77
2022/04/29 03:13:06;;;;;;;8.60;5.85;;;7.30;27.10;;;;;;4988799;28;34129;-76
2022/04/29 03:15:33;;;;;;;9.20;5.80;;;7.30;27.30;;;;;;4988003;28;34075;-76
2022/04/29 03:20:41;;;;;;;7.15;5.22;;;7.30;27.20;;;;;;4997808;28;34074;-76
2022/04/29 03:23:08;;;;;;;9.05;5.85;;;7.30;27.40;;;;;;4988234;28;34129;-76
2022/04/29 03:25:35;;;;;;;8.68;5.53;;;7.30;27.40;;;;;;4980777;28;34156;-76
2022/04/29 03:28:03;;;;;;;7.65;5.30;;;7.30;27.40;;;;;;4980870;28;34384;-76
2022/04/29 03:30:29;;;;;;;8.13;5.55;;;7.30;27.60;;;;;;4954798;28;35648;-76
2022/04/29 03:32:57;;;;;;;6.95;4.97;;;7.20;27.60;;;;;;4969034;28;34173;-76
2022/04/29 03:35:24;;;;;;;7.38;5.47;;;7.30;27.80;;;;;;4978997;28;34495;-76
2022/04/29 03:37:52;;;;;;;10.70;5.95;;;7.20;27.70;;;;;;5004868;28;34026;-77
2022/04/29 03:40:21;;;;;;;8.05;5.75;;;7.20;27.60;;;;;;4987690;28;35861;-76
2022/04/29 03:42:49;;;;;;;9.10;5.93;;;7.20;27.80;;;;;;4988178;28;34088;-76
2022/04/29 03:45:14;;;;;;;9.05;6.05;;;7.20;27.80;;;;;;5004440;28;34176;-76
2022/04/29 03:47:41;;;;;;;8.68;5.40;;;7.20;27.80;;;;;;4988384;28;34467;-76
2022/04/29 03:50:08;;;;;;;7.32;5.85;;;7.20;27.90;;;;;;4987915;28;36483;-76
2022/04/29 03:52:42;;;;;;;9.45;6.00;;;7.20;28.00;;;;;;4988299;28;34214;-76
2022/04/29 03:55:08;;;;;;;7.85;5.40;;;7.20;28.20;;;;;;4971983;28;34155;-77
2022/04/29 03:57:35;;;;;;;6.85;5.07;;;7.20;28.10;;;;;;4972110;28;34444;-76
2022/04/29 04:00:01;;;;;;;9.50;5.78;;;7.20;28.30;;;;;;4963727;28;35824;-76
2022/04/29 04:02:28;;;;;;;9.15;6.00;;;7.20;28.20;;;;;;4968136;28;34272;-76
2022/04/29 04:04:54;;;;;;;7.72;5.40;;;7.20;28.10;;;;;;4968821;28;34164;-76
2022/04/29 04:07:20;;;;;;;9.82;5.68;;;7.10;28.20;;;;;;4952336;28;34164;-77
2022/04/29 04:09:46;;;;;;;9.35;5.88;;;7.10;28.40;;;;;;4987584;28;34734;-76
2022/04/29 04:12:12;;;;;;;7.88;5.63;;;7.10;28.40;;;;;;4968038;28;34328;-76
2022/04/29 04:14:38;;;;;;;7.43;5.30;;;7.20;28.40;;;;;;4951883;28;34574;-77
2022/04/29 04:17:04;;;;;;;6.80;5.28;;;7.10;28.40;;;;;;4968578;28;34249;-77
2022/04/29 04:19:30;;;;;;;8.30;6.03;;;7.10;28.50;;;;;;4952385;28;34145;-77
2022/04/29 04:21:56;;;;;;;8.10;5.35;;;7.10;28.50;;;;;;4952222;28;34243;-76
2022/04/29 04:24:22;;;;;;;9.10;5.57;;;7.10;29.20;;;;;;4967707;28;34490;-77
2022/04/29 04:26:48;;;;;;;9.95;6.05;;;7.10;28.60;;;;;;4982117;28;34306;-77
2022/04/29 04:29:13;;;;;;;6.93;5.75;;;7.10;28.90;;;;;;4984777;28;35796;-77
2022/04/29 04:31:39;;;;;;;7.22;5.50;;;7.10;28.80;;;;;;5003841;28;34027;-77
2022/04/29 04:34:49;;;;;;;11.95;6.07;;;7.10;28.80;;;;;;5003859;28;34276;-76
2022/04/29 04:36:54;;;;;;;11.02;6.28;;;7.10;28.90;;;;;;4976058;28;34193;-77
2022/04/29 04:39:21;;;;;;;7.40;5.82;;;7.10;29.00;;;;;;4984336;28;35928;-77
2022/04/29 04:41:48;;;;;;;8.18;5.57;;;7.10;28.80;;;;;;4980769;28;34312;-77
2022/04/29 04:44:14;;;;;;;8.32;5.63;;;7.10;29.00;;;;;;4987378;28;34084;-77
2022/04/29 04:46:40;;;;;;;10.45;5.93;;;7.10;29.10;;;;;;5004012;28;34284;-76
2022/04/29 04:49:06;;;;;;;9.02;5.88;;;7.10;29.10;;;;;;4987082;28;35601;-77
2022/04/29 04:51:32;;;;;;;7.97;5.70;;;7.20;29.20;;;;;;5004528;28;34411;-76
2022/04/29 04:53:58;;;;;;;11.63;6.03;;;7.20;29.00;;;;;;4985353;28;34451;-77
2022/04/29 04:56:26;;;;;;;7.63;5.30;;;7.20;29.00;;;;;;4984073;28;34520;-77
2022/04/29 04:58:52;;;;;;;8.80;5.65;;;7.20;29.20;;;;;;4983614;28;35544;-77
2022/04/29 05:01:17;;;;;;;10.07;6.15;;;7.20;29.20;;;;;;4983424;28;34092;-76
2022/04/29 05:03:43;;;;;;;8.07;5.57;;;7.30;29.40;;;;;;4984094;28;34216;-77
2022/04/29 05:06:09;;;;;;;10.30;5.85;;;7.30;29.30;;;;;;4983814;28;34378;-77
2022/04/29 05:08:35;;;;;;;9.80;6.50;;;7.30;29.30;;;;;;4983362;28;35597;-77
2022/04/29 05:11:01;;;;;;;7.40;6.10;;;7.30;29.40;;;;;;4975487;28;34186;-76
2022/04/29 05:13:27;;;;;;;11.30;6.18;;;7.40;29.30;;;;;;5003714;28;34734;-77
2022/04/29 05:15:53;;;;;;;9.60;6.28;;;7.40;29.30;;;;;;4988638;28;34247;-77
2022/04/29 05:18:19;;;;;;;8.90;5.93;;;7.50;29.50;;;;;;4966761;28;36313;-77
2022/04/29 05:20:45;;;;;;;9.55;6.32;;;7.60;29.50;;;;;;4997314;28;34257;-77
2022/04/29 05:23:11;;;;;;;8.35;5.85;;;7.60;29.50;;;;;;4986491;28;34122;-77
2022/04/29 05:25:37;;;;;;;8.65;5.43;;;7.70;29.50;;;;;;4977691;28;34211;-78
2022/04/29 05:28:03;;;;;;;9.75;6.22;;;7.90;29.70;;;;;;4963649;28;36304;-77
2022/04/29 05:30:31;;;;;;;11.88;6.65;;;8.00;29.40;;;;;;4969525;28;34396;-77
2022/04/29 05:32:58;;;;;;;11.88;7.75;;;8.20;29.20;;;;;;4986207;28;34243;-77
2022/04/29 05:35:24;;;;;;;11.25;6.57;;;8.30;29.10;;;;;;4986698;28;34527;-77
2022/04/29 05:37:51;;;;;;;10.18;7.18;;;8.50;29.00;;;;;;4983137;28;35545;-77
2022/04/29 05:42:58;;;;;;;10.52;7.07;;;8.80;28.80;;;;;;4983431;28;34278;-77
2022/04/29 05:45:24;;;;;;;10.10;6.82;;;8.90;28.50;;;;;;4961668;28;34095;-77
2022/04/29 05:47:50;;;;;;;14.32;7.93;;;9.10;28.50;;;;;;5003847;28;34352;-77
2022/04/29 05:50:16;;;;;;;13.75;7.30;;;9.10;28.20;;;;;;4986038;28;34363;-77
2022/04/29 05:52:42;;;;;;;10.23;7.32;;;9.30;28.70;;;;;;4966774;28;34091;-77
2022/04/29 05:55:08;;;;;;;9.25;7.28;;;9.40;28.00;;;;;;4984320;28;34111;-77
2022/04/29 05:57:34;;;;;;;9.57;7.60;;;9.60;27.90;;;;;;4950711;28;35931;-77
2022/04/29 06:00:00;;;;;;;9.32;7.38;;;9.70;27.70;;;;;;4984894;28;34145;-77
2022/04/29 06:02:27;;;;;;;9.90;7.18;;;9.80;27.60;;;;;;4986049;28;34121;-77
2022/04/29 06:04:53;;;;;;;12.88;7.93;;;10.00;27.60;;;;;;4986081;28;34424;-77
2022/04/29 06:07:18;;;;;;;10.80;7.50;;;10.10;27.40;;;;;;4986114;28;36203;-77
2022/04/29 06:09:44;;;;;;;11.68;7.75;;;10.20;27.10;;;;;;4986544;28;34107;-77
2022/04/29 06:12:10;;;;;;;11.70;7.07;;;10.20;27.00;;;;;;4986156;28;34093;-77
2022/04/29 06:14:36;;;;;;;9.52;6.85;;;10.30;27.10;;;;;;4985708;28;34305;-77
2022/04/29 06:17:03;;;;;;;8.65;7.00;;;10.40;27.10;;;;;;4985782;28;35468;-77
2022/04/29 06:19:34;;;;;;;9.85;6.93;;;10.40;27.00;;;;;;4987039;28;34259;-77
2022/04/29 06:22:00;;;;;;;13.20;7.13;;;10.40;27.00;;;;;;4986109;28;34312;-77
2022/04/29 06:24:26;;;;;;;9.43;6.10;;;10.50;27.20;;;;;;4969740;28;34494;-77
2022/04/29 06:26:52;;;;;;;11.10;6.78;;;10.60;27.50;;;;;;5001942;28;34151;-77
2022/04/29 06:29:18;;;;;;;10.82;6.85;;;10.60;27.40;;;;;;5001597;28;34027;-77
2022/04/29 06:31:44;;;;;;;7.65;5.80;;;10.60;27.30;;;;;;4985714;28;34099;-77
2022/04/29 06:34:10;;;;;;;9.45;6.18;;;10.70;27.30;;;;;;4950252;28;34440;-77
2022/04/29 06:36:36;;;;;;;9.52;6.65;;;10.70;27.30;;;;;;4966584;28;34420;-77
2022/04/29 06:39:04;;;;;;;10.02;6.22;;;10.80;27.20;;;;;;4966959;28;34387;-77
2022/04/29 06:41:30;;;;;;;10.23;7.05;;;10.90;28.10;;;;;;4985467;28;34229;-77
2022/04/29 06:43:56;;;;;;;9.50;6.40;;;11.00;27.20;;;;;;4984204;28;34275;-77
2022/04/29 06:46:24;;;;;;;14.20;6.47;;;11.00;27.10;;;;;;4965733;28;35836;-78
2022/04/29 06:48:52;;;;;;;13.18;6.60;;;11.10;27.20;;;;;;5002122;28;34002;-78
2022/04/29 06:51:18;;;;;;;9.68;6.78;;;11.20;27.20;;;;;;4985299;28;34234;-77
2022/04/29 06:53:45;;;;;;;9.20;7.25;;;11.30;27.20;;;;;;5002248;28;34150;-77
2022/04/29 06:56:11;;;;;;;12.05;7.15;;;11.30;27.10;;;;;;5001503;28;36723;-77
2022/04/29 06:58:37;;;;;;;9.43;6.80;;;11.40;27.20;;;;;;4986400;28;34321;-77
2022/04/29 07:01:03;;;;;;;9.55;6.63;;;11.50;27.30;;;;;;4985711;28;34104;-77
2022/04/29 07:03:29;;;;;;;10.68;7.68;;;11.60;27.10;;;;;;4988746;28;34067;-77
2022/04/29 07:05:57;;;;;;;9.77;7.20;;;11.70;27.20;;;;;;4987032;28;35940;-77
2022/04/29 07:08:23;;;;;;;11.25;7.38;;;11.70;27.10;;;;;;4991286;28;34393;-77
2022/04/29 07:10:49;;;;;;;12.77;7.80;;;11.80;27.10;;;;;;4992365;28;34221;-77
2022/04/29 07:13:14;;;;;;;10.68;7.53;;;11.80;27.00;;;;;;4998693;28;34647;-78
2022/04/29 07:15:43;;;;;;;10.55;7.53;;;11.90;26.90;;;;;;4982757;28;36468;-78
2022/04/29 07:18:10;;;;;;;11.15;7.38;;;12.00;26.80;;;;;;5005572;28;34100;-77
2022/04/29 07:20:37;;;;;;;12.18;7.40;;;12.00;26.70;;;;;;4988348;28;34215;-78
2022/04/29 07:23:03;;;;;;;11.07;7.90;;;12.10;26.60;;;;;;4988572;28;34299;-77
2022/04/29 07:25:29;;;;;;;14.25;8.50;;;12.20;26.50;;;;;;4976929;28;35092;-77
2022/04/29 07:27:55;;;;;;;11.90;8.00;;;12.30;26.50;;;;;;4988638;28;34208;-77
2022/04/29 07:30:20;;;;;;;13.38;8.13;;;12.40;26.30;;;;;;4977503;28;34382;-77
2022/04/29 07:32:46;;;;;;;11.60;6.55;;;12.60;26.10;;;;;;4979447;28;34528;-77
2022/04/29 07:43:16;;;;;;;14.95;7.40;;;13.60;24.30;;;;;;4986406;28;34264;-77
2022/04/29 07:45:43;;;;;;;10.15;7.22;;;13.90;23.80;;;;;;4968949;28;35977;-77
2022/04/29 07:48:09;;;;;;;12.00;7.40;;;14.10;23.30;;;;;;4969839;28;34192;-78
2022/04/29 07:50:36;;;;;;;10.15;7.60;;;14.50;23.00;;;;;;4969304;28;34071;-77
2022/04/29 07:53:05;;;;;;;14.57;7.82;;;14.70;22.60;;;;;;4982452;28;34237;-78
2022/04/29 07:55:31;;;;;;;13.77;7.63;;;14.90;22.30;;;;;;4972273;28;36235;-77
2022/04/29 07:57:57;;;;;;;9.98;7.57;;;15.10;22.10;;;;;;4983932;28;34148;-78
2022/04/29 08:00:23;;;;;;;9.88;7.13;;;15.30;21.80;;;;;;4988056;28;34061;-78
2022/04/29 08:02:49;;;;;;;13.05;7.18;;;15.50;21.80;;;;;;4989093;28;34076;-78
2022/04/29 08:05:15;;;;;;;11.10;7.05;;;15.80;21.40;;;;;;5005273;28;34394;-78
2022/04/29 08:07:42;;;;;;;11.27;7.30;;;16.10;21.00;;;;;;4987835;28;34267;-78
2022/04/29 08:10:09;;;;;;;13.45;7.47;;;16.40;20.30;;;;;;4987280;28;34345;-77
2022/04/29 08:12:36;;;;;;;9.93;7.07;;;16.70;19.90;;;;;;4988422;28;34150;-78
2022/04/29 08:15:03;;;;;;;13.38;7.40;;;16.90;19.20;;;;;;5003786;28;34937;-78
2022/04/29 08:17:29;;;;;;;10.38;7.13;;;17.00;19.10;;;;;;5004239;28;34203;-78
2022/04/29 08:19:55;;;;;;;10.63;6.82;;;17.00;18.90;;;;;;5004933;28;34140;-77
2022/04/29 08:22:21;;;;;;;7.85;6.18;;;17.30;18.80;;;;;;5005161;28;34072;-79
2022/04/29 08:24:47;;;;;;;10.35;7.13;;;17.40;18.70;;;;;;4983254;28;35845;-77
2022/04/29 08:27:14;;;;;;;11.65;6.82;;;17.50;18.50;;;;;;4968048;28;34143;-78
2022/04/29 08:29:39;;;;;;;10.50;7.13;;;17.60;18.30;;;;;;4952401;28;34278;-78
2022/04/29 08:32:06;;;;;;;8.93;6.22;;;17.70;18.40;;;;;;4986629;28;34253;-78
2022/04/29 08:34:34;;;;;;;9.25;6.35;;;17.70;18.10;;;;;;4968530;28;36523;-78
2022/04/29 08:37:03;;;;;;;12.82;7.03;;;17.70;18.00;;;;;;4984844;28;34403;-79
2022/04/29 08:39:31;;;;;;;10.90;6.82;;;17.70;18.10;;;;;;4984016;28;35288;-78
2022/04/29 08:42:01;;;;;;;10.98;6.90;;;18.00;17.90;;;;;;4983046;28;34300;-79
2022/04/29 08:44:31;;;;;;;8.18;6.82;;;18.20;17.30;;;;;;4984973;28;35652;-78
2022/04/29 08:46:58;;;;;;;8.05;6.32;;;18.40;17.30;;;;;;4985955;28;34341;-78
2022/04/29 08:49:25;;;;;;;11.02;7.25;;;18.40;16.80;;;;;;4976119;28;34259;-78
2022/04/29 08:51:51;;;;;;;9.57;6.55;;;18.50;16.80;;;;;;4974977;28;34161;-78
2022/04/29 08:59:44;;;;;;;14.55;6.63;;;18.90;16.50;;;;;;4973865;28;34275;-79
2022/04/29 09:02:11;;;;;;;9.52;6.88;;;19.00;16.20;;;;;;4999430;28;34602;-79
2022/04/29 09:04:37;;;;;;;11.73;6.95;;;19.00;16.30;;;;;;4982873;28;35947;-78
2022/04/29 09:07:03;;;;;;;9.85;7.25;;;19.10;16.20;;;;;;4987407;28;34151;-78
2022/04/29 09:10:03;;;;;;;10.73;6.35;;;19.20;15.90;;;;;;4985816;28;34174;-79
2022/04/29 09:12:29;;;;;;;9.38;6.30;;;19.40;15.20;;;;;;4975054;28;34213;-79
2022/04/29 09:15:11;;;;;;;8.88;6.30;;;19.50;15.80;;;;;;4984114;28;35538;-78
2022/04/29 09:17:39;;;;;;;10.60;6.40;;;19.50;13.60;;;;;;4978882;28;34300;-78
2022/04/29 09:20:25;;;;;;;8.80;6.40;;;19.40;15.70;;;;;;5004137;28;34356;-78
2022/04/29 09:22:52;;;;;;;10.38;7.28;;;19.50;14.30;;;;;;4982418;28;34136;-79
2022/04/29 09:25:19;;;;;;;12.45;6.22;;;19.40;15.80;;;;;;4987405;28;35938;-79
2022/04/29 09:28:02;;;;;;;10.65;6.68;;;19.40;15.60;;;;;;4999981;28;35207;-78
2022/04/29 09:30:43;;;;;;;11.85;6.57;;;19.60;14.00;;;;;;4987751;28;34132;-79
2022/04/29 09:33:25;;;;;;;9.07;6.10;;;19.60;14.30;;;;;;4967749;28;34679;-78
2022/04/29 09:35:53;;;;;;;11.18;6.03;;;19.60;13.80;;;;;;4979175;28;36019;-78
2022/04/29 09:41:00;;;;;;;9.98;6.50;;;19.70;15.40;;;;;;4993837;28;34231;-78
2022/04/29 09:43:44;;;;;;;6.88;6.10;;;19.80;15.20;;;;;;4985525;28;34286;-78
2022/04/29 09:46:11;;;;;;;9.13;6.18;;;19.90;13.80;;;;;;4987176;28;36191;-79
2022/04/29 09:49:08;;;;;;;9.60;6.90;;;20.00;14.90;;;;;;4986192;28;34451;-78
2022/04/29 09:51:53;;;;;;;10.55;6.30;;;20.00;13.10;;;;;;5002905;28;34082;-78
2022/04/29 09:54:23;;;;;;;8.18;5.57;;;20.00;13.50;;;;;;4986973;28;34322;-79
2022/04/29 09:57:07;;;;;;;9.80;6.32;;;20.10;14.20;;;;;;4998443;28;35037;-78
2022/04/29 09:59:44;;;;;;;10.45;6.10;;;20.20;13.00;;;;;;4967332;28;34313;-78
2022/04/29 10:02:13;;;;;;;8.55;5.22;;;20.30;14.10;;;;;;4983343;28;34177;-78
2022/04/29 10:04:42;;;;;;;7.35;5.60;;;20.60;14.10;;;;;;4968148;28;34190;-79
2022/04/29 10:07:12;;;;;;;7.65;5.78;;;20.90;13.50;;;;;;4984346;28;34319;-78
2022/04/29 10:09:40;;;;;;;9.65;6.38;;;21.10;13.30;;;;;;4964371;28;34229;-78
2022/04/29 10:12:16;;;;;;;8.30;5.93;;;21.30;12.90;;;;;;4967474;28;34187;-80
2022/04/29 10:14:44;;;;;;;8.95;6.38;;;21.40;11.70;;;;;;4944255;28;34062;-78
2022/04/29 10:22:43;;;;;;;6.65;5.22;;;22.60;11.50;;;;;;4972184;28;34090;-79
2022/04/29 10:25:10;;;;;;;8.73;6.18;;;22.80;11.50;;;;;;4971502;28;34531;-80
2022/04/29 10:27:39;;;;;;;7.43;6.05;;;22.90;11.60;;;;;;4987819;28;35740;-80
2022/04/29 10:30:07;;;;;;;7.63;5.90;;;23.00;10.90;;;;;;4974970;28;34348;-79
2022/04/29 10:33:04;;;;;;;10.57;5.63;;;23.10;11.00;;;;;;4980398;28;34269;-80
2022/04/29 10:35:46;;;;;;;6.20;5.13;;;23.50;8.20;;;;;;4979973;28;34597;-79
2022/04/29 10:38:28;;;;;;;7.57;5.03;;;23.80;6.20;;;;;;4976839;28;35831;-78
2022/04/29 10:41:11;;;;;;;6.00;5.25;;;24.00;10.10;;;;;;4978331;28;34191;-80
2022/04/29 10:43:39;;;;;;;7.65;4.82;;;24.20;5.60;;;;;;4990378;28;34102;-79
2022/04/29 10:46:23;;;;;;;8.40;4.70;;;24.10;9.20;;;;;;4970478;28;34160;-79
2022/04/29 10:48:52;;;;;;;10.52;5.13;;;24.20;4.90;;;;;;5002137;28;34496;-79
2022/04/29 10:51:39;;;;;;;7.28;4.82;;;24.30;8.40;;;;;;4975558;28;35306;-80
2022/04/29 10:54:05;;;;;;;7.28;5.03;;;24.60;8.30;;;;;;4971990;28;34463;-79
2022/04/29 10:56:35;;;;;;;6.75;5.45;;;24.70;8.40;;;;;;4978485;28;34558;-79
2022/04/29 10:59:15;;;;;;;6.18;4.78;;;24.60;6.80;;;;;;4983105;28;35476;-80
2022/04/29 11:01:48;;;;;;;4.47;4.07;;;24.50;4.90;;;;;;5008489;28;34034;-79
2022/04/29 11:04:42;;;;;;;8.13;4.68;;;24.30;5.20;;;;;;4988587;28;34057;-80
2022/04/29 11:07:38;;;;;;;5.28;4.22;;;24.20;3.00;;;;;;4991782;28;34324;-79
2022/04/29 11:10:07;;;;;;;7.45;4.00;;;24.10;3.00;;;;;;4987526;28;34502;-79
2022/04/29 11:12:37;;;;;;;4.97;4.00;;;24.00;7.70;;;;;;4988509;28;34387;-80
2022/04/29 11:15:21;;;;;;;5.97;3.72;;;23.90;7.10;;;;;;4963636;28;34267;-79
2022/04/29 11:17:47;;;;;;;6.25;3.25;;;24.10;5.30;;;;;;4988433;28;34284;-78
2022/04/29 11:20:20;;;;;;;8.00;4.50;;;24.30;7.20;;;;;;4995907;28;36760;-78
2022/04/29 11:26:00;;;;;;;3.67;3.03;;;25.20;3.10;;;;;;4981757;28;34305;-79
2022/04/29 11:28:27;;;;;;;4.13;2.88;;;25.40;1.00;;;;;;4988671;28;34169;-78
2022/04/29 11:31:03;;;;;;;2.45;2.25;;;25.30;4.40;;;;;;4970771;28;35721;-79
2022/04/29 11:33:29;;;;;;;4.53;2.38;;;25.40;1.00;;;;;;4988801;28;34226;-79
2022/04/29 11:36:09;;;;;;;3.05;2.50;;;25.40;4.50;;;;;;4988629;28;34139;-78
2022/04/29 11:38:42;;;;;;;4.40;2.55;;;25.40;1.70;;;;;;4974979;28;34430;-77
2022/04/29 11:41:18;;;;;;;3.10;2.80;;;25.40;2.10;;;;;;4970285;28;36319;-79
2022/04/29 11:43:47;;;;;;;3.20;2.90;;;25.40;1.00;;;;;;4991614;28;34250;-79
2022/04/29 11:46:13;;;;;;;4.50;3.25;;;25.30;2.10;;;;;;4982443;28;34151;-79
2022/04/29 11:48:51;;;;;;;4.05;3.05;;;25.50;3.40;;;;;;4969450;28;34193;-78
2022/04/29 11:51:17;;;;;;;3.42;2.85;;;25.60;1.00;;;;;;4970080;28;35810;-79
2022/04/29 11:54:03;;;;;;;4.10;3.42;;;25.50;2.30;;;;;;4974893;28;34285;-78
2022/04/29 11:56:44;;;;;;;4.93;3.20;;;25.50;1.00;;;;;;4984895;28;34496;-78
2022/04/29 11:59:11;;;;;;;3.83;2.97;;;25.40;1.00;;;;;;4970561;28;34352;-79
2022/04/29 12:01:38;;;;;;;4.30;3.30;;;25.40;2.80;;;;;;4989452;28;35531;-78
2022/04/29 12:04:04;;;;;;;3.72;3.28;;;25.40;2.70;;;;;;5003560;28;34393;-80
2022/04/29 12:06:31;;;;;;;3.30;3.00;;;25.40;1.90;;;;;;4979660;28;34226;-78
2022/04/29 12:08:57;;;;;;;4.25;3.22;;;25.30;2.30;;;;;;4982365;28;34123;-79
2022/04/29 12:11:30;;;;;;;2.92;2.70;;;25.20;2.00;;;;;;4987746;28;35522;-78
2022/04/29 12:13:57;;;;;;;4.53;3.08;;;25.20;1.00;;;;;;4988323;28;34292;-78
2022/04/29 12:16:23;;;;;;;3.25;2.95;;;25.20;1.90;;;;;;4984285;28;34298;-77
2022/04/29 12:18:50;;;;;;;3.67;2.70;;;25.20;2.00;;;;;;4975024;28;34262;-78
2022/04/29 12:21:25;;;;;;;3.25;2.65;;;25.10;2.10;;;;;;4982998;28;35682;-78
2022/04/29 12:23:53;;;;;;;2.75;2.55;;;25.00;1.00;;;;;;4974463;28;34169;-78
2022/04/29 12:26:19;;;;;;;4.50;2.40;;;24.80;1.80;;;;;;4970735;28;34382;-79
2022/04/29 12:28:54;;;;;;;3.80;2.30;;;24.70;1.70;;;;;;4984135;28;34161;-78
2022/04/29 12:36:57;;;;;;;3.35;2.33;;;24.30;1.20;;;;;;4990317;28;34269;-79
2022/04/29 12:39:26;;;;;;;2.83;2.33;;;24.30;1.00;;;;;;4974486;28;34400;-78
2022/04/29 12:42:06;;;;;;;3.05;2.78;;;24.20;1.80;;;;;;4979016;28;34109;-78
2022/04/29 12:47:38;;;;;;;3.33;2.90;;;24.10;1.00;;;;;;5004702;28;34467;-78
2022/04/29 12:50:24;;;;;;;3.40;3.08;;;24.10;1.00;;;;;;4965942;28;34280;-78
2022/04/29 12:53:10;;;;;;;3.53;2.63;;;24.00;1.00;;;;;;4970438;28;36668;-78
2022/04/29 12:55:48;;;;;;;3.65;2.67;;;23.90;1.00;;;;;;4977745;28;34477;-78
2022/04/29 12:58:17;;;;;;;3.72;2.42;;;24.00;1.00;;;;;;4994422;28;34129;-77
2022/04/29 13:00:50;;;;;;;3.03;2.67;;;23.90;1.10;;;;;;4966346;28;34094;-80
2022/04/29 13:03:21;;;;;;;3.20;2.90;;;23.90;1.20;;;;;;4981774;28;36537;-78
2022/04/29 13:05:48;;;;;;;4.28;2.67;;;23.80;1.00;;;;;;4982117;28;34131;-79
2022/04/29 13:08:14;;;;;;;3.40;2.60;;;23.70;1.70;;;;;;4975206;28;34171;-78
2022/04/29 13:10:47;;;;;;;8.85;3.53;;;23.80;1.60;;;;;;4950027;28;34399;-77
2022/04/29 13:13:13;;;;;;;9.32;2.80;;;23.70;1.00;;;;;;4976946;28;35883;-76
2022/04/29 13:15:41;;;;;;;3.70;2.67;;;23.60;1.70;;;;;;5001329;28;34284;-77
2022/04/29 13:18:09;;;;;;;3.22;2.53;;;23.70;1.60;;;;;;4952021;28;34373;-78
2022/04/29 13:20:35;;;;;;;3.17;2.70;;;23.60;1.60;;;;;;4961221;28;34079;-78
2022/04/29 13:23:01;;;;;;;2.75;2.55;;;23.60;1.60;;;;;;4985490;28;35729;-77
2022/04/29 13:25:27;;;;;;;3.67;2.38;;;23.70;2.10;;;;;;4975737;28;34215;-76
2022/04/29 13:27:54;;;;;;;4.93;3.15;;;23.80;1.60;;;;;;4967079;28;34274;-78
2022/04/29 13:30:21;;;;;;;3.88;2.90;;;23.90;1.40;;;;;;4967813;28;34101;-78
2022/04/29 13:32:47;;;;;;;3.03;2.70;;;23.90;1.00;;;;;;4968190;28;35642;-78
2022/04/29 13:35:15;;;;;;;3.25;2.80;;;23.90;1.00;;;;;;4979131;28;34727;-77
2022/04/29 13:37:42;;;;;;;4.18;2.55;;;23.90;1.00;;;;;;4986184;28;34297;-78